sensor_id;sensor_type;location;lat;lon;timestamp;temperature;humidity
7936;DHT22;4013;49.744;8.118;2022-10-17T00:01:34;14.70;99.90
7936;DHT22;4013;49.744;8.118;2022-10-17T00:04:01;14.70;99.90
7936;DHT22;4013;49.744;8.118;2022-10-17T00:06:27;14.70;99.90
7936;DHT22;4013;49.744;8.118;2022-10-17T00:08:54;14.70;99.90
7936;DHT22;4013;49.744;8.118;2022-10-17T00:11:23;14.70;99.90
7936;DHT22;4013;49.744;8.118;2022-10-17T00:13:50;14.80;99.90
7936;DHT22;4013;49.744;8.118;2022-10-17T00:16:23;14.80;99.90
7936;DHT22;4013;49.744;8.118;2022-10-17T00:18:50;14.80;99.90
7936;DHT22;4013;49.744;8.118;2022-10-17T00:21:18;14.90;99.90
7936;DHT22;4013;49.744;8.118;2022-10-17T00:23:45;14.90;99.90
7936;DHT22;4013;49.744;8.118;2022-10-17T00:26:13;14.90;99.90
7936;DHT22;4013;49.744;8.118;2022-10-17T00:28:41;14.90;99.90
7936;DHT22;4013;49.744;8.118;2022-10-17T00:31:11;14.80;99.90
7936;DHT22;4013;49.744;8.118;2022-10-17T00:33:37;14.70;99.90
7936;DHT22;4013;49.744;8.118;2022-10-17T00:36:06;14.70;99.90
7936;DHT22;4013;49.744;8.118;2022-10-17T00:38:34;14.70;99.90
7936;DHT22;4013;49.744;8.118;2022-10-17T00:41:01;14.70;99.90
7936;DHT22;4013;49.744;8.118;2022-10-17T00:43:28;14.80;99.90
7936;DHT22;4013;49.744;8.118;2022-10-17T00:45:56;14.80;99.90
7936;DHT22;4013;49.744;8.118;2022-10-17T00:48:23;14.80;99.90
7936;DHT22;4013;49.744;8.118;2022-10-17T00:50:51;14.90;99.90
7936;DHT22;4013;49.744;8.118;2022-10-17T00:53:18;14.80;99.90
7936;DHT22;4013;49.744;8.118;2022-10-17T00:55:48;14.70;99.90
7936;DHT22;4013;49.744;8.118;2022-10-17T00:58:16;14.70;99.90
7936;DHT22;4013;49.744;8.118;2022-10-17T01:00:45;14.60;99.90
7936;DHT22;4013;49.744;8.118;2022-10-17T01:03:14;14.60;99.90
7936;DHT22;4013;49.744;8.118;2022-10-17T01:05:41;14.60;99.90
7936;DHT22;4013;49.744;8.118;2022-10-17T01:08:09;14.50;99.90
7936;DHT22;4013;49.744;8.118;2022-10-17T01:10:44;14.50;99.90
7936;DHT22;4013;49.744;8.118;2022-10-17T01:13:19;14.50;99.90
7936;DHT22;4013;49.744;8.118;2022-10-17T01:15:58;14.50;99.90
7936;DHT22;4013;49.744;8.118;2022-10-17T01:18:35;14.40;99.90
7936;DHT22;4013;49.744;8.118;2022-10-17T01:21:32;14.50;99.90
7936;DHT22;4013;49.744;8.118;2022-10-17T01:33:23;14.60;99.90
7936;DHT22;4013;49.744;8.118;2022-10-17T01:35:54;14.50;99.90
7936;DHT22;4013;49.744;8.118;2022-10-17T01:38:25;14.60;99.90
7936;DHT22;4013;49.744;8.118;2022-10-17T01:41:01;14.70;99.90
7936;DHT22;4013;49.744;8.118;2022-10-17T01:43:32;14.60;99.90
7936;DHT22;4013;49.744;8.118;2022-10-17T01:46:06;14.70;99.90
7936;DHT22;4013;49.744;8.118;2022-10-17T01:48:45;14.70;99.90
7936;DHT22;4013;49.744;8.118;2022-10-17T01:51:16;14.70;99.90
7936;DHT22;4013;49.744;8.118;2022-10-17T01:53:48;14.60;99.90
7936;DHT22;4013;49.744;8.118;2022-10-17T01:56:17;14.50;99.90
7936;DHT22;4013;49.744;8.118;2022-10-17T01:58:50;14.50;99.90
7936;DHT22;4013;49.744;8.118;2022-10-17T02:01:18;14.50;99.90
7936;DHT22;4013;49.744;8.118;2022-10-17T02:03:48;14.50;99.90
7936;DHT22;4013;49.744;8.118;2022-10-17T02:06:16;14.50;99.90
7936;DHT22;4013;49.744;8.118;2022-10-17T02:08:45;14.50;99.90
7936;DHT22;4013;49.744;8.118;2022-10-17T02:11:14;14.60;99.90
7936;DHT22;4013;49.744;8.118;2022-10-17T02:14:03;14.60;99.90
7936;DHT22;4013;49.744;8.118;2022-10-17T02:16:37;14.70;99.90
7936;DHT22;4013;49.744;8.118;2022-10-17T02:19:27;14.70;99.90
7936;DHT22;4013;49.744;8.118;2022-10-17T02:22:06;14.70;99.90
7936;DHT22;4013;49.744;8.118;2022-10-17T02:24:46;14.70;99.90
7936;DHT22;4013;49.744;8.118;2022-10-17T02:27:22;14.70;99.90
7936;DHT22;4013;49.744;8.118;2022-10-17T02:29:55;14.70;99.90
7936;DHT22;4013;49.744;8.118;2022-10-17T02:32:33;14.70;99.90
7936;DHT22;4013;49.744;8.118;2022-10-17T02:35:06;14.70;99.90
7936;DHT22;4013;49.744;8.118;2022-10-17T02:37:35;14.70;99.90
7936;DHT22;4013;49.744;8.118;2022-10-17T02:40:04;14.70;99.90
7936;DHT22;4013;49.744;8.118;2022-10-17T02:42:32;14.60;99.90
7936;DHT22;4013;49.744;8.118;2022-10-17T02:45:00;14.60;99.90
7936;DHT22;4013;49.744;8.118;2022-10-17T02:47:31;14.60;99.90
7936;DHT22;4013;49.744;8.118;2022-10-17T02:50:00;14.60;99.90
7936;DHT22;4013;49.744;8.118;2022-10-17T02:52:33;14.60;99.90
7936;DHT22;4013;49.744;8.118;2022-10-17T02:55:05;14.50;99.90
7936;DHT22;4013;49.744;8.118;2022-10-17T02:57:36;14.60;99.90
7936;DHT22;4013;49.744;8.118;2022-10-17T03:00:07;14.60;99.90
7936;DHT22;4013;49.744;8.118;2022-10-17T03:02:41;14.60;99.90
7936;DHT22;4013;49.744;8.118;2022-10-17T03:05:10;14.60;99.90
7936;DHT22;4013;49.744;8.118;2022-10-17T03:07:38;14.60;99.90
7936;DHT22;4013;49.744;8.118;2022-10-17T03:10:05;14.60;99.90
7936;DHT22;4013;49.744;8.118;2022-10-17T03:12:32;14.50;99.90
7936;DHT22;4013;49.744;8.118;2022-10-17T03:14:59;14.60;99.90
7936;DHT22;4013;49.744;8.118;2022-10-17T03:17:26;14.70;99.90
7936;DHT22;4013;49.744;8.118;2022-10-17T03:19:53;14.60;99.90
7936;DHT22;4013;49.744;8.118;2022-10-17T03:22:20;14.70;99.90
7936;DHT22;4013;49.744;8.118;2022-10-17T03:24:48;14.60;99.90
7936;DHT22;4013;49.744;8.118;2022-10-17T03:27:15;14.60;99.90
7936;DHT22;4013;49.744;8.118;2022-10-17T03:29:42;14.60;99.90
7936;DHT22;4013;49.744;8.118;2022-10-17T03:32:08;14.60;99.90
7936;DHT22;4013;49.744;8.118;2022-10-17T03:34:35;14.60;99.90
7936;DHT22;4013;49.744;8.118;2022-10-17T03:37:02;14.60;99.90
7936;DHT22;4013;49.744;8.118;2022-10-17T03:39:29;14.60;99.90
7936;DHT22;4013;49.744;8.118;2022-10-17T03:41:57;14.50;99.90
7936;DHT22;4013;49.744;8.118;2022-10-17T03:44:24;14.50;99.90
7936;DHT22;4013;49.744;8.118;2022-10-17T03:46:51;14.40;99.90
7936;DHT22;4013;49.744;8.118;2022-10-17T03:49:18;14.40;99.90
7936;DHT22;4013;49.744;8.118;2022-10-17T03:51:45;14.30;99.90
7936;DHT22;4013;49.744;8.118;2022-10-17T03:54:12;14.30;99.90
7936;DHT22;4013;49.744;8.118;2022-10-17T03:56:39;14.30;99.90
7936;DHT22;4013;49.744;8.118;2022-10-17T03:59:11;14.20;99.90
7936;DHT22;4013;49.744;8.118;2022-10-17T04:01:38;14.10;99.90
7936;DHT22;4013;49.744;8.118;2022-10-17T04:04:05;14.10;99.90
7936;DHT22;4013;49.744;8.118;2022-10-17T04:06:32;14.10;99.90
7936;DHT22;4013;49.744;8.118;2022-10-17T04:08:59;14.20;99.90
7936;DHT22;4013;49.744;8.118;2022-10-17T04:11:26;14.20;99.90
7936;DHT22;4013;49.744;8.118;2022-10-17T04:13:54;14.10;99.90
7936;DHT22;4013;49.744;8.118;2022-10-17T04:16:23;14.20;99.90
7936;DHT22;4013;49.744;8.118;2022-10-17T04:18:52;14.30;99.90
7936;DHT22;4013;49.744;8.118;2022-10-17T04:21:21;14.30;99.90
7936;DHT22;4013;49.744;8.118;2022-10-17T04:23:48;14.40;99.90
7936;DHT22;4013;49.744;8.118;2022-10-17T04:26:18;14.30;99.90
7936;DHT22;4013;49.744;8.118;2022-10-17T04:28:44;14.20;99.90
7936;DHT22;4013;49.744;8.118;2022-10-17T04:31:12;14.20;99.90
7936;DHT22;4013;49.744;8.118;2022-10-17T04:33:41;14.20;99.90
7936;DHT22;4013;49.744;8.118;2022-10-17T04:36:14;14.30;99.90
7936;DHT22;4013;49.744;8.118;2022-10-17T04:38:41;14.30;99.90
7936;DHT22;4013;49.744;8.118;2022-10-17T04:41:12;14.40;99.90
7936;DHT22;4013;49.744;8.118;2022-10-17T04:43:39;14.30;99.90
7936;DHT22;4013;49.744;8.118;2022-10-17T04:46:09;14.40;99.90
7936;DHT22;4013;49.744;8.118;2022-10-17T04:48:37;14.40;99.90
7936;DHT22;4013;49.744;8.118;2022-10-17T04:51:07;14.40;99.90
7936;DHT22;4013;49.744;8.118;2022-10-17T04:53:36;14.40;99.90
7936;DHT22;4013;49.744;8.118;2022-10-17T04:56:07;14.40;99.90
7936;DHT22;4013;49.744;8.118;2022-10-17T04:58:34;14.40;99.90
7936;DHT22;4013;49.744;8.118;2022-10-17T05:01:04;14.50;99.90
7936;DHT22;4013;49.744;8.118;2022-10-17T05:03:32;14.40;99.90
7936;DHT22;4013;49.744;8.118;2022-10-17T05:06:03;14.50;99.90
7936;DHT22;4013;49.744;8.118;2022-10-17T05:08:31;14.50;99.90
7936;DHT22;4013;49.744;8.118;2022-10-17T05:10:58;14.40;99.90
7936;DHT22;4013;49.744;8.118;2022-10-17T05:13:24;14.40;99.90
7936;DHT22;4013;49.744;8.118;2022-10-17T05:15:51;14.30;99.90
7936;DHT22;4013;49.744;8.118;2022-10-17T05:18:18;14.20;99.90
7936;DHT22;4013;49.744;8.118;2022-10-17T05:20:45;14.10;99.90
7936;DHT22;4013;49.744;8.118;2022-10-17T05:23:12;14.00;99.90
7936;DHT22;4013;49.744;8.118;2022-10-17T05:25:40;14.00;99.90
7936;DHT22;4013;49.744;8.118;2022-10-17T05:28:07;13.90;99.90
7936;DHT22;4013;49.744;8.118;2022-10-17T05:30:34;13.90;99.90
7936;DHT22;4013;49.744;8.118;2022-10-17T05:33:01;13.90;99.90
7936;DHT22;4013;49.744;8.118;2022-10-17T05:35:28;13.80;99.90
7936;DHT22;4013;49.744;8.118;2022-10-17T05:37:55;13.80;99.90
7936;DHT22;4013;49.744;8.118;2022-10-17T05:40:23;13.70;99.90
7936;DHT22;4013;49.744;8.118;2022-10-17T05:42:51;13.70;99.90
7936;DHT22;4013;49.744;8.118;2022-10-17T05:45:18;13.80;99.90
7936;DHT22;4013;49.744;8.118;2022-10-17T05:47:45;13.90;99.90
7936;DHT22;4013;49.744;8.118;2022-10-17T05:50:12;14.00;99.90
7936;DHT22;4013;49.744;8.118;2022-10-17T05:52:39;14.00;99.90
7936;DHT22;4013;49.744;8.118;2022-10-17T05:55:07;14.10;99.90
7936;DHT22;4013;49.744;8.118;2022-10-17T05:57:34;14.10;99.90
7936;DHT22;4013;49.744;8.118;2022-10-17T06:00:03;14.10;99.90
7936;DHT22;4013;49.744;8.118;2022-10-17T06:02:30;14.10;99.90
7936;DHT22;4013;49.744;8.118;2022-10-17T06:04:57;14.10;99.90
7936;DHT22;4013;49.744;8.118;2022-10-17T06:07:24;14.10;99.90
7936;DHT22;4013;49.744;8.118;2022-10-17T06:09:51;14.00;99.90
7936;DHT22;4013;49.744;8.118;2022-10-17T06:12:18;14.10;99.90
7936;DHT22;4013;49.744;8.118;2022-10-17T06:14:45;14.10;99.90
7936;DHT22;4013;49.744;8.118;2022-10-17T06:17:13;14.10;99.90
7936;DHT22;4013;49.744;8.118;2022-10-17T06:19:40;14.20;99.90
7936;DHT22;4013;49.744;8.118;2022-10-17T06:22:06;14.20;99.90
7936;DHT22;4013;49.744;8.118;2022-10-17T06:24:33;14.20;99.90
7936;DHT22;4013;49.744;8.118;2022-10-17T06:27:00;14.20;99.90
7936;DHT22;4013;49.744;8.118;2022-10-17T06:29:27;14.20;99.90
7936;DHT22;4013;49.744;8.118;2022-10-17T06:31:54;14.20;99.90
7936;DHT22;4013;49.744;8.118;2022-10-17T06:34:22;14.30;99.90
7936;DHT22;4013;49.744;8.118;2022-10-17T06:36:49;14.30;99.90
7936;DHT22;4013;49.744;8.118;2022-10-17T06:39:16;14.30;99.90
7936;DHT22;4013;49.744;8.118;2022-10-17T06:41:43;14.40;99.90
7936;DHT22;4013;49.744;8.118;2022-10-17T06:44:10;14.30;99.90
7936;DHT22;4013;49.744;8.118;2022-10-17T06:46:38;14.40;99.90
7936;DHT22;4013;49.744;8.118;2022-10-17T06:49:05;14.40;99.90
7936;DHT22;4013;49.744;8.118;2022-10-17T06:51:36;14.50;99.90
7936;DHT22;4013;49.744;8.118;2022-10-17T06:54:03;14.50;99.90
7936;DHT22;4013;49.744;8.118;2022-10-17T06:56:30;14.60;99.90
7936;DHT22;4013;49.744;8.118;2022-10-17T06:58:57;14.70;99.90
7936;DHT22;4013;49.744;8.118;2022-10-17T07:01:24;14.70;99.90
7936;DHT22;4013;49.744;8.118;2022-10-17T07:03:51;14.60;99.90
7936;DHT22;4013;49.744;8.118;2022-10-17T07:06:18;14.60;99.90
7936;DHT22;4013;49.744;8.118;2022-10-17T07:08:46;14.70;99.90
7936;DHT22;4013;49.744;8.118;2022-10-17T07:11:15;14.80;99.90
7936;DHT22;4013;49.744;8.118;2022-10-17T07:13:42;14.90;99.90
7936;DHT22;4013;49.744;8.118;2022-10-17T07:16:10;14.90;99.90
7936;DHT22;4013;49.744;8.118;2022-10-17T07:18:37;15.00;99.90
7936;DHT22;4013;49.744;8.118;2022-10-17T07:21:05;15.00;99.90
7936;DHT22;4013;49.744;8.118;2022-10-17T07:23:33;15.10;99.90
7936;DHT22;4013;49.744;8.118;2022-10-17T07:26:05;15.20;99.90
7936;DHT22;4013;49.744;8.118;2022-10-17T07:28:33;15.30;99.90
7936;DHT22;4013;49.744;8.118;2022-10-17T07:31:05;15.30;99.90
7936;DHT22;4013;49.744;8.118;2022-10-17T07:33:32;15.40;99.90
7936;DHT22;4013;49.744;8.118;2022-10-17T07:36:00;15.50;99.90
7936;DHT22;4013;49.744;8.118;2022-10-17T07:38:27;15.60;99.90
7936;DHT22;4013;49.744;8.118;2022-10-17T07:40:54;15.80;99.90
7936;DHT22;4013;49.744;8.118;2022-10-17T07:43:23;15.90;99.90
7936;DHT22;4013;49.744;8.118;2022-10-17T07:45:51;16.00;99.90
7936;DHT22;4013;49.744;8.118;2022-10-17T07:48:19;16.10;99.90
7936;DHT22;4013;49.744;8.118;2022-10-17T07:50:46;16.20;99.90
7936;DHT22;4013;49.744;8.118;2022-10-17T07:53:13;16.30;99.90
7936;DHT22;4013;49.744;8.118;2022-10-17T07:55:41;16.30;99.90
7936;DHT22;4013;49.744;8.118;2022-10-17T07:58:09;16.40;99.90
7936;DHT22;4013;49.744;8.118;2022-10-17T08:00:38;16.40;99.90
7936;DHT22;4013;49.744;8.118;2022-10-17T08:03:05;16.50;99.90
7936;DHT22;4013;49.744;8.118;2022-10-17T08:05:32;16.50;99.90
7936;DHT22;4013;49.744;8.118;2022-10-17T08:07:59;16.60;99.90
7936;DHT22;4013;49.744;8.118;2022-10-17T08:10:26;16.70;99.90
7936;DHT22;4013;49.744;8.118;2022-10-17T08:12:54;16.70;99.90
7936;DHT22;4013;49.744;8.118;2022-10-17T08:15:22;16.80;99.90
7936;DHT22;4013;49.744;8.118;2022-10-17T08:17:50;17.00;99.90
7936;DHT22;4013;49.744;8.118;2022-10-17T08:20:20;17.00;99.90
7936;DHT22;4013;49.744;8.118;2022-10-17T08:22:51;17.10;99.90
7936;DHT22;4013;49.744;8.118;2022-10-17T08:25:18;17.10;99.90
7936;DHT22;4013;49.744;8.118;2022-10-17T08:27:45;17.10;99.90
7936;DHT22;4013;49.744;8.118;2022-10-17T08:30:12;17.20;99.90
7936;DHT22;4013;49.744;8.118;2022-10-17T08:32:39;17.30;99.90
7936;DHT22;4013;49.744;8.118;2022-10-17T08:35:08;17.40;99.90
7936;DHT22;4013;49.744;8.118;2022-10-17T08:37:35;17.60;99.90
7936;DHT22;4013;49.744;8.118;2022-10-17T08:40:02;17.60;99.90
7936;DHT22;4013;49.744;8.118;2022-10-17T08:42:42;17.80;99.90
7936;DHT22;4013;49.744;8.118;2022-10-17T08:45:18;17.80;99.90
7936;DHT22;4013;49.744;8.118;2022-10-17T08:47:48;17.90;99.90
7936;DHT22;4013;49.744;8.118;2022-10-17T08:50:28;17.90;99.90
7936;DHT22;4013;49.744;8.118;2022-10-17T08:53:00;17.90;99.90
7936;DHT22;4013;49.744;8.118;2022-10-17T08:55:31;18.00;99.90
7936;DHT22;4013;49.744;8.118;2022-10-17T08:57:59;18.00;99.90
7936;DHT22;4013;49.744;8.118;2022-10-17T09:00:27;18.10;99.90
7936;DHT22;4013;49.744;8.118;2022-10-17T09:03:05;18.20;99.90
7936;DHT22;4013;49.744;8.118;2022-10-17T09:05:40;18.20;99.90
7936;DHT22;4013;49.744;8.118;2022-10-17T09:08:21;18.20;99.90
7936;DHT22;4013;49.744;8.118;2022-10-17T09:10:55;18.20;99.90
7936;DHT22;4013;49.744;8.118;2022-10-17T09:13:36;18.30;99.90
7936;DHT22;4013;49.744;8.118;2022-10-17T09:16:17;18.40;99.90
7936;DHT22;4013;49.744;8.118;2022-10-17T09:18:57;18.40;99.90
7936;DHT22;4013;49.744;8.118;2022-10-17T09:21:35;18.50;99.90
7936;DHT22;4013;49.744;8.118;2022-10-17T09:24:10;18.60;99.90
7936;DHT22;4013;49.744;8.118;2022-10-17T09:26:39;18.70;99.90
7936;DHT22;4013;49.744;8.118;2022-10-17T09:29:17;18.70;99.90
7936;DHT22;4013;49.744;8.118;2022-10-17T09:31:49;18.70;99.90
7936;DHT22;4013;49.744;8.118;2022-10-17T09:34:17;18.80;99.90
7936;DHT22;4013;49.744;8.118;2022-10-17T09:36:46;18.80;99.90
7936;DHT22;4013;49.744;8.118;2022-10-17T09:39:14;18.90;99.90
7936;DHT22;4013;49.744;8.118;2022-10-17T09:41:47;19.00;99.90
7936;DHT22;4013;49.744;8.118;2022-10-17T09:44:18;19.00;99.90
7936;DHT22;4013;49.744;8.118;2022-10-17T09:49:46;19.40;99.90
7936;DHT22;4013;49.744;8.118;2022-10-17T09:52:18;19.60;99.90
7936;DHT22;4013;49.744;8.118;2022-10-17T09:54:48;19.70;99.90
7936;DHT22;4013;49.744;8.118;2022-10-17T09:57:16;19.80;99.90
7936;DHT22;4013;49.744;8.118;2022-10-17T09:59:46;19.90;99.90
7936;DHT22;4013;49.744;8.118;2022-10-17T10:02:18;19.90;99.90
7936;DHT22;4013;49.744;8.118;2022-10-17T10:04:54;20.10;99.90
7936;DHT22;4013;49.744;8.118;2022-10-17T10:07:24;20.20;99.90
7936;DHT22;4013;49.744;8.118;2022-10-17T10:09:52;20.40;99.90
7936;DHT22;4013;49.744;8.118;2022-10-17T10:12:22;20.50;99.90
7936;DHT22;4013;49.744;8.118;2022-10-17T10:14:49;20.80;99.90
7936;DHT22;4013;49.744;8.118;2022-10-17T10:17:36;20.90;99.90
7936;DHT22;4013;49.744;8.118;2022-10-17T10:20:29;21.10;99.90
7936;DHT22;4013;49.744;8.118;2022-10-17T10:23:14;21.20;99.90
7936;DHT22;4013;49.744;8.118;2022-10-17T10:25:51;21.30;99.90
7936;DHT22;4013;49.744;8.118;2022-10-17T10:28:19;21.40;99.90
7936;DHT22;4013;49.744;8.118;2022-10-17T10:30:50;21.50;99.90
7936;DHT22;4013;49.744;8.118;2022-10-17T10:33:18;21.60;99.90
7936;DHT22;4013;49.744;8.118;2022-10-17T10:35:55;21.60;99.90
7936;DHT22;4013;49.744;8.118;2022-10-17T10:38:24;21.70;99.90
7936;DHT22;4013;49.744;8.118;2022-10-17T10:40:53;21.80;99.90
7936;DHT22;4013;49.744;8.118;2022-10-17T10:43:24;21.80;99.90
7936;DHT22;4013;49.744;8.118;2022-10-17T10:45:52;21.80;99.90
7936;DHT22;4013;49.744;8.118;2022-10-17T10:48:21;21.90;99.90
7936;DHT22;4013;49.744;8.118;2022-10-17T10:50:51;22.00;99.90
7936;DHT22;4013;49.744;8.118;2022-10-17T10:53:35;22.00;99.90
7936;DHT22;4013;49.744;8.118;2022-10-17T10:56:08;21.90;99.90
7936;DHT22;4013;49.744;8.118;2022-10-17T10:58:45;22.00;99.90
7936;DHT22;4013;49.744;8.118;2022-10-17T11:01:22;22.10;99.90
7936;DHT22;4013;49.744;8.118;2022-10-17T11:04:18;22.20;99.90
7936;DHT22;4013;49.744;8.118;2022-10-17T11:06:47;22.30;99.90
7936;DHT22;4013;49.744;8.118;2022-10-17T11:09:25;22.30;99.90
7936;DHT22;4013;49.744;8.118;2022-10-17T11:11:59;22.40;99.90
7936;DHT22;4013;49.744;8.118;2022-10-17T11:14:36;22.30;99.90
7936;DHT22;4013;49.744;8.118;2022-10-17T11:17:11;22.30;99.90
7936;DHT22;4013;49.744;8.118;2022-10-17T11:19:44;22.30;99.90
7936;DHT22;4013;49.744;8.118;2022-10-17T11:22:15;22.40;99.90
7936;DHT22;4013;49.744;8.118;2022-10-17T11:24:49;22.40;99.90
7936;DHT22;4013;49.744;8.118;2022-10-17T11:27:22;22.40;99.90
7936;DHT22;4013;49.744;8.118;2022-10-17T11:29:49;22.40;99.90
7936;DHT22;4013;49.744;8.118;2022-10-17T11:32:19;22.40;99.90
7936;DHT22;4013;49.744;8.118;2022-10-17T11:34:51;22.30;99.90
7936;DHT22;4013;49.744;8.118;2022-10-17T11:37:22;22.40;99.90
7936;DHT22;4013;49.744;8.118;2022-10-17T11:39:53;22.30;99.90
7936;DHT22;4013;49.744;8.118;2022-10-17T11:42:26;22.30;99.90
7936;DHT22;4013;49.744;8.118;2022-10-17T11:44:59;22.40;99.90
7936;DHT22;4013;49.744;8.118;2022-10-17T11:47:31;22.40;99.90
7936;DHT22;4013;49.744;8.118;2022-10-17T11:50:04;22.50;99.90
7936;DHT22;4013;49.744;8.118;2022-10-17T11:52:36;22.40;99.90
7936;DHT22;4013;49.744;8.118;2022-10-17T11:55:11;22.60;99.90
7936;DHT22;4013;49.744;8.118;2022-10-17T11:57:53;22.50;99.90
7936;DHT22;4013;49.744;8.118;2022-10-17T12:00:29;22.50;99.90
7936;DHT22;4013;49.744;8.118;2022-10-17T12:03:06;22.50;99.90
7936;DHT22;4013;49.744;8.118;2022-10-17T12:05:45;22.60;99.90
7936;DHT22;4013;49.744;8.118;2022-10-17T12:08:22;22.60;99.90
7936;DHT22;4013;49.744;8.118;2022-10-17T12:10:55;22.60;99.90
7936;DHT22;4013;49.744;8.118;2022-10-17T12:13:46;22.60;99.90
7936;DHT22;4013;49.744;8.118;2022-10-17T12:16:43;22.60;99.90
7936;DHT22;4013;49.744;8.118;2022-10-17T12:19:31;22.60;99.90
7936;DHT22;4013;49.744;8.118;2022-10-17T12:22:04;22.70;99.90
7936;DHT22;4013;49.744;8.118;2022-10-17T12:24:39;22.70;99.90
7936;DHT22;4013;49.744;8.118;2022-10-17T12:27:23;22.80;99.90
7936;DHT22;4013;49.744;8.118;2022-10-17T12:29:59;22.90;99.90
7936;DHT22;4013;49.744;8.118;2022-10-17T12:32:26;22.90;99.90
7936;DHT22;4013;49.744;8.118;2022-10-17T12:34:54;23.00;99.90
7936;DHT22;4013;49.744;8.118;2022-10-17T12:40:49;23.10;99.90
7936;DHT22;4013;49.744;8.118;2022-10-17T12:43:45;23.20;99.90
7936;DHT22;4013;49.744;8.118;2022-10-17T12:46:42;23.20;99.90
7936;DHT22;4013;49.744;8.118;2022-10-17T12:49:38;23.30;99.90
7936;DHT22;4013;49.744;8.118;2022-10-17T12:52:24;23.30;99.90
7936;DHT22;4013;49.744;8.118;2022-10-17T12:55:11;23.30;99.90
7936;DHT22;4013;49.744;8.118;2022-10-17T12:57:42;23.30;99.90
7936;DHT22;4013;49.744;8.118;2022-10-17T13:00:18;23.40;99.90
7936;DHT22;4013;49.744;8.118;2022-10-17T13:02:46;23.40;99.90
7936;DHT22;4013;49.744;8.118;2022-10-17T13:05:16;23.50;99.90
7936;DHT22;4013;49.744;8.118;2022-10-17T13:07:46;24.20;99.90
7936;DHT22;4013;49.744;8.118;2022-10-17T13:10:23;25.30;99.90
7936;DHT22;4013;49.744;8.118;2022-10-17T13:12:55;26.30;99.90
7936;DHT22;4013;49.744;8.118;2022-10-17T13:15:26;26.90;99.90
7936;DHT22;4013;49.744;8.118;2022-10-17T13:17:57;27.50;99.90
7936;DHT22;4013;49.744;8.118;2022-10-17T13:20:26;27.60;99.90
7936;DHT22;4013;49.744;8.118;2022-10-17T13:22:53;27.90;99.90
7936;DHT22;4013;49.744;8.118;2022-10-17T13:25:23;28.30;99.90
7936;DHT22;4013;49.744;8.118;2022-10-17T13:27:50;28.60;99.90
7936;DHT22;4013;49.744;8.118;2022-10-17T13:30:30;28.80;99.90
7936;DHT22;4013;49.744;8.118;2022-10-17T13:32:58;28.40;99.90
7936;DHT22;4013;49.744;8.118;2022-10-17T13:35:28;28.30;99.90
7936;DHT22;4013;49.744;8.118;2022-10-17T13:37:56;28.50;99.90
7936;DHT22;4013;49.744;8.118;2022-10-17T13:40:26;28.80;99.90
7936;DHT22;4013;49.744;8.118;2022-10-17T13:42:55;28.80;99.90
7936;DHT22;4013;49.744;8.118;2022-10-17T13:45:27;29.00;99.90
7936;DHT22;4013;49.744;8.118;2022-10-17T13:47:57;29.00;99.90
7936;DHT22;4013;49.744;8.118;2022-10-17T13:50:32;29.20;99.90
7936;DHT22;4013;49.744;8.118;2022-10-17T13:53:18;29.30;99.90
7936;DHT22;4013;49.744;8.118;2022-10-17T13:55:57;29.00;99.90
7936;DHT22;4013;49.744;8.118;2022-10-17T13:58:24;29.00;99.90
7936;DHT22;4013;49.744;8.118;2022-10-17T14:00:52;29.00;99.90
7936;DHT22;4013;49.744;8.118;2022-10-17T14:03:21;29.20;99.90
7936;DHT22;4013;49.744;8.118;2022-10-17T14:06:06;29.30;99.90
7936;DHT22;4013;49.744;8.118;2022-10-17T14:08:36;29.00;99.90
7936;DHT22;4013;49.744;8.118;2022-10-17T14:11:13;29.20;99.90
7936;DHT22;4013;49.744;8.118;2022-10-17T14:13:41;29.20;99.90
7936;DHT22;4013;49.744;8.118;2022-10-17T14:16:09;29.10;99.90
7936;DHT22;4013;49.744;8.118;2022-10-17T14:18:37;29.00;99.90
7936;DHT22;4013;49.744;8.118;2022-10-17T14:21:05;28.90;99.90
7936;DHT22;4013;49.744;8.118;2022-10-17T14:23:36;28.20;99.90
7936;DHT22;4013;49.744;8.118;2022-10-17T14:26:05;27.50;99.90
7936;DHT22;4013;49.744;8.118;2022-10-17T14:28:32;26.50;99.90
7936;DHT22;4013;49.744;8.118;2022-10-17T14:31:10;25.40;99.90
7936;DHT22;4013;49.744;8.118;2022-10-17T14:33:43;24.90;99.90
7936;DHT22;4013;49.744;8.118;2022-10-17T14:36:11;24.40;99.90
7936;DHT22;4013;49.744;8.118;2022-10-17T14:38:42;24.00;99.90
7936;DHT22;4013;49.744;8.118;2022-10-17T14:41:14;23.80;99.90
7936;DHT22;4013;49.744;8.118;2022-10-17T14:43:43;23.60;99.90
7936;DHT22;4013;49.744;8.118;2022-10-17T14:46:13;23.40;99.90
7936;DHT22;4013;49.744;8.118;2022-10-17T14:48:42;23.30;99.90
7936;DHT22;4013;49.744;8.118;2022-10-17T14:51:14;23.20;99.90
7936;DHT22;4013;49.744;8.118;2022-10-17T14:53:42;23.10;99.90
7936;DHT22;4013;49.744;8.118;2022-10-17T14:56:21;23.20;99.90
7936;DHT22;4013;49.744;8.118;2022-10-17T14:58:48;23.20;99.90
7936;DHT22;4013;49.744;8.118;2022-10-17T15:01:16;23.30;99.90
7936;DHT22;4013;49.744;8.118;2022-10-17T15:03:45;23.40;99.90
7936;DHT22;4013;49.744;8.118;2022-10-17T15:06:17;23.20;99.90
7936;DHT22;4013;49.744;8.118;2022-10-17T15:08:44;23.10;99.90
7936;DHT22;4013;49.744;8.118;2022-10-17T15:11:11;23.10;99.90
7936;DHT22;4013;49.744;8.118;2022-10-17T15:13:38;23.00;99.90
7936;DHT22;4013;49.744;8.118;2022-10-17T15:16:09;22.90;99.90
7936;DHT22;4013;49.744;8.118;2022-10-17T15:18:39;22.90;99.90
7936;DHT22;4013;49.744;8.118;2022-10-17T15:21:10;22.80;99.90
7936;DHT22;4013;49.744;8.118;2022-10-17T15:23:38;22.70;99.90
7936;DHT22;4013;49.744;8.118;2022-10-17T15:26:14;22.60;99.90
7936;DHT22;4013;49.744;8.118;2022-10-17T15:28:42;22.60;99.90
7936;DHT22;4013;49.744;8.118;2022-10-17T15:31:15;22.60;99.90
7936;DHT22;4013;49.744;8.118;2022-10-17T15:33:43;22.60;99.90
7936;DHT22;4013;49.744;8.118;2022-10-17T15:36:23;22.50;99.90
7936;DHT22;4013;49.744;8.118;2022-10-17T15:38:51;22.50;99.90
7936;DHT22;4013;49.744;8.118;2022-10-17T15:41:20;22.40;99.90
7936;DHT22;4013;49.744;8.118;2022-10-17T15:43:47;22.30;99.90
7936;DHT22;4013;49.744;8.118;2022-10-17T15:46:17;22.40;99.90
7936;DHT22;4013;49.744;8.118;2022-10-17T15:48:45;22.30;99.90
7936;DHT22;4013;49.744;8.118;2022-10-17T15:51:12;22.20;99.90
7936;DHT22;4013;49.744;8.118;2022-10-17T15:53:41;22.10;99.90
7936;DHT22;4013;49.744;8.118;2022-10-17T15:56:18;22.00;99.90
7936;DHT22;4013;49.744;8.118;2022-10-17T15:58:46;21.80;99.90
7936;DHT22;4013;49.744;8.118;2022-10-17T16:01:19;21.70;99.90
7936;DHT22;4013;49.744;8.118;2022-10-17T16:03:46;21.60;99.90
7936;DHT22;4013;49.744;8.118;2022-10-17T16:06:15;21.60;99.90
7936;DHT22;4013;49.744;8.118;2022-10-17T16:08:43;21.40;99.90
7936;DHT22;4013;49.744;8.118;2022-10-17T16:11:16;21.30;99.90
7936;DHT22;4013;49.744;8.118;2022-10-17T16:13:48;21.20;99.90
7936;DHT22;4013;49.744;8.118;2022-10-17T16:16:16;21.10;99.90
7936;DHT22;4013;49.744;8.118;2022-10-17T16:18:43;21.00;99.90
7936;DHT22;4013;49.744;8.118;2022-10-17T16:21:12;21.00;99.90
7936;DHT22;4013;49.744;8.118;2022-10-17T16:23:39;20.90;99.90
7936;DHT22;4013;49.744;8.118;2022-10-17T16:26:08;20.90;99.90
7936;DHT22;4013;49.744;8.118;2022-10-17T16:28:35;20.80;99.90
7936;DHT22;4013;49.744;8.118;2022-10-17T16:31:02;20.80;99.90
7936;DHT22;4013;49.744;8.118;2022-10-17T16:33:28;20.80;99.90
7936;DHT22;4013;49.744;8.118;2022-10-17T16:35:56;20.80;99.90
7936;DHT22;4013;49.744;8.118;2022-10-17T16:38:23;20.70;99.90
7936;DHT22;4013;49.744;8.118;2022-10-17T16:40:50;20.70;99.90